Terminal Aerodrome Forecast
Issued by NWS Cleveland, OH

Home | Current Version | Previous Version | Graphics & Text | Print | Product List | Glossary On
Versions: 1 2 3 4 5 6 7 8 9 10 11 12 13 14 15 16 17 18 19 20 21 22
000
FTUS41 KCLE 240957 AAA
TAFYNG
TAF AMD
KYNG 240957Z 2410/2506 12006KT P6SM BKN035
      TEMPO 2410/2412 5SM -SHRA BKN025
     FM241300 12008KT P6SM BKN070
     FM242100 12012G20KT P6SM -SHRA OVC035
     FM250000 12012G20KT P6SM -SHRA OVC025=

USA.gov is the U.S. government's official web portal to all federal, state and local government web resources and services.